Time;durP1;ratioP1;P1;durP2;ratioP2;P2;SDS_P1;SDS_P2;PMS_P1;PMS_P2;Temp;Humidity;BMP_temperature;BMP_pressure;BME280_temperature;BME280_humidity;BME280_pressure;Samples;Min_cycle;Max_cycle;Signal;HPM_P1;HPM_P2
2023/07/04 00:00:25;;;;;;;12.57;11.67;;;;;;;18.94;100.00;92873.94;5051156;28;20252;-77
2023/07/04 00:02:50;;;;;;;13.03;12.00;;;;;;;18.92;100.00;92876.13;5051552;28;20231;-77
2023/07/04 00:05:16;;;;;;;12.13;11.07;;;;;;;18.91;100.00;92866.63;5052114;28;20224;-77
2023/07/04 00:07:42;;;;;;;12.57;11.67;;;;;;;18.89;100.00;92868.81;5050396;28;20215;-77
2023/07/04 00:10:08;;;;;;;12.27;11.27;;;;;;;18.77;100.00;92879.34;5051884;28;20250;-77
2023/07/04 00:12:33;;;;;;;13.40;12.33;;;;;;;18.81;100.00;92880.25;5051739;28;20528;-77
2023/07/04 00:14:59;;;;;;;12.87;11.93;;;;;;;18.77;100.00;92874.06;5051719;28;20208;-76
2023/07/04 00:17:26;;;;;;;13.30;12.30;;;;;;;18.81;100.00;92867.00;5051249;28;20178;-77
2023/07/04 00:19:51;;;;;;;13.13;11.93;;;;;;;18.82;100.00;92876.47;5053334;28;20311;-77
2023/07/04 00:22:17;;;;;;;12.87;12.00;;;;;;;18.02;100.00;92761.28;5056910;28;20372;-77
2023/07/04 00:24:43;;;;;;;12.53;11.50;;;;;;;18.68;100.00;92870.66;5057644;28;20288;-77
2023/07/04 00:27:11;;;;;;;13.07;11.97;;;;;;;18.64;100.00;92880.34;5051327;28;20206;-77
2023/07/04 00:29:38;;;;;;;13.33;12.43;;;;;;;18.77;100.00;92888.03;5051339;28;20235;-77
2023/07/04 00:32:07;;;;;;;12.83;11.93;;;;;;;18.60;100.00;92874.91;5049104;28;20212;-77
2023/07/04 00:34:33;;;;;;;12.47;11.57;;;;;;;18.57;100.00;92880.06;5050997;28;20231;-77
2023/07/04 00:37:00;;;;;;;13.03;11.83;;;;;;;18.61;100.00;92870.41;5051755;28;20188;-77
2023/07/04 00:39:26;;;;;;;11.93;11.23;;;;;;;18.57;100.00;92888.78;5051178;28;20220;-77
2023/07/04 00:41:52;;;;;;;13.10;12.03;;;;;;;18.54;100.00;92875.41;5051681;28;20195;-77
2023/07/04 00:44:23;;;;;;;12.17;11.17;;;;;;;18.47;100.00;92861.94;5045748;28;20325;-77
2023/07/04 00:47:11;;;;;;;13.63;12.63;;;;;;;18.49;100.00;92865.06;5052521;28;20189;-77
2023/07/04 00:49:43;;;;;;;12.90;11.83;;;;;;;18.43;100.00;92874.25;5049484;28;20317;-77
2023/07/04 00:52:27;;;;;;;12.50;11.70;;;;;;;17.87;100.00;92790.13;5052170;28;20208;-77
2023/07/04 00:54:57;;;;;;;12.83;11.73;;;;;;;18.42;100.00;92859.47;5048979;28;20242;-77
2023/07/04 00:57:25;;;;;;;12.20;11.40;;;;;;;18.45;100.00;92870.19;5052025;28;20181;-77
2023/07/04 00:59:58;;;;;;;12.33;11.50;;;;;;;18.36;100.00;92874.72;5051012;28;20227;-77
2023/07/04 01:02:28;;;;;;;12.83;11.83;;;;;;;18.19;100.00;92852.88;5044235;28;20252;-77
2023/07/04 01:04:54;;;;;;;11.87;11.07;;;;;;;18.30;100.00;92872.59;5051266;28;20232;-77
2023/07/04 01:07:41;;;;;;;12.33;11.23;;;;;;;18.37;100.00;92870.19;5051735;28;20256;-77
2023/07/04 01:10:36;;;;;;;12.70;11.57;;;;;;;18.34;100.00;92870.84;5051136;28;20913;-77
2023/07/04 01:13:01;;;;;;;12.53;11.27;;;;;;;18.29;100.00;92873.69;5050431;28;20224;-77
2023/07/04 01:15:30;;;;;;;12.07;11.10;;;;;;;18.26;100.00;92875.09;5050197;28;20227;-77
2023/07/04 01:17:58;;;;;;;13.07;12.03;;;;;;;18.20;100.00;92868.44;5051308;28;20182;-77
2023/07/04 01:20:24;;;;;;;11.63;10.83;;;;;;;18.11;100.00;92865.06;5052353;28;20286;-77
2023/07/04 01:23:17;;;;;;;12.37;11.47;;;;;;;18.16;100.00;92874.69;5051705;28;20283;-77
2023/07/04 01:25:55;;;;;;;14.77;11.30;;;;;;;18.11;100.00;92865.06;5050694;28;20220;-77
2023/07/04 01:28:22;;;;;;;14.80;11.83;;;;;;;18.05;100.00;92847.84;5051332;28;20243;-77
2023/07/04 01:30:48;;;;;;;12.63;11.63;;;;;;;17.89;100.00;92838.09;5051388;28;20230;-77
2023/07/04 01:33:14;;;;;;;12.57;11.33;;;;;;;18.06;100.00;92870.50;5051221;28;20211;-77
2023/07/04 01:35:40;;;;;;;11.77;10.87;;;;;;;18.08;100.00;92867.56;5050142;28;20257;-77
2023/07/04 01:38:06;;;;;;;10.83;9.93;;;;;;;18.17;100.00;92871.72;5073945;28;20728;-77
2023/07/04 01:40:34;;;;;;;11.17;10.37;;;;;;;18.10;100.00;92863.50;5051042;28;20230;-77
2023/07/04 01:43:01;;;;;;;12.53;11.70;;;;;;;17.99;100.00;92848.31;5083446;28;20193;-77
2023/07/04 01:45:26;;;;;;;12.03;11.23;;;;;;;18.15;100.00;92867.84;5041681;28;20291;-77
2023/07/04 01:47:53;;;;;;;11.90;11.10;;;;;;;18.13;100.00;92868.16;5047223;28;20185;-77
2023/07/04 01:50:19;;;;;;;12.10;11.10;;;;;;;17.96;100.00;92843.69;5050598;28;20222;-77
2023/07/04 01:52:45;;;;;;;12.60;11.60;;;;;;;18.07;100.00;92858.84;5080084;28;20242;-77
2023/07/04 01:55:12;;;;;;;12.27;11.27;;;;;;;17.96;100.00;92865.56;5050505;28;20301;-77
2023/07/04 01:57:37;;;;;;;12.20;11.40;;;;;;;17.90;100.00;92858.16;5050426;28;20194;-77
2023/07/04 02:00:08;;;;;;;11.63;10.73;;;;;;;18.00;100.00;92865.72;5050436;28;20255;-77
2023/07/04 02:02:35;;;;;;;12.70;11.77;;;;;;;18.05;100.00;92861.03;5050611;28;21185;-77
2023/07/04 02:05:01;;;;;;;12.33;11.33;;;;;;;18.13;100.00;92864.75;5050861;28;20227;-77
2023/07/04 02:07:26;;;;;;;12.47;11.27;;;;;;;18.00;100.00;92865.72;5049773;28;20227;-74
2023/07/04 02:09:51;;;;;;;11.57;10.57;;;;;;;17.90;100.00;92864.19;5049519;28;20230;-74
2023/07/04 02:12:18;;;;;;;12.47;11.47;;;;;;;18.02;100.00;92866.19;5050300;28;20226;-74
2023/07/04 02:14:43;;;;;;;11.30;10.43;;;;;;;18.07;100.00;92866.00;5050422;28;20222;-74
2023/07/04 02:17:09;;;;;;;12.17;11.33;;;;;;;18.09;100.00;92866.44;5050421;28;20199;-75
2023/07/04 02:19:34;;;;;;;12.53;11.43;;;;;;;18.03;100.00;92863.22;5049415;28;20231;-74
2023/07/04 02:21:59;;;;;;;11.53;10.67;;;;;;;18.14;100.00;92868.91;5053840;28;20213;-74
2023/07/04 02:24:25;;;;;;;11.57;10.67;;;;;;;18.04;100.00;92853.44;5040489;28;20188;-79
2023/07/04 02:26:50;;;;;;;13.00;12.07;;;;;;;18.12;100.00;92873.75;5046425;28;20187;-77
2023/07/04 02:29:16;;;;;;;12.63;11.53;;;;;;;17.91;100.00;92854.41;5046156;28;20194;-77
2023/07/04 02:31:41;;;;;;;11.70;10.73;;;;;;;18.01;100.00;92867.28;5050570;28;20184;-77
2023/07/04 02:34:07;;;;;;;13.10;12.10;;;;;;;17.97;100.00;92871.63;5046445;28;20452;-77
2023/07/04 02:36:32;;;;;;;12.10;11.10;;;;;;;18.06;100.00;92862.59;5039817;28;20223;-77
2023/07/04 02:38:57;;;;;;;11.33;10.43;;;;;;;18.11;100.00;92857.13;5048652;28;20180;-78
2023/07/04 02:41:23;;;;;;;12.57;11.47;;;;;;;17.96;100.00;92865.56;5046909;28;20228;-77
2023/07/04 02:43:48;;;;;;;11.83;11.03;;;;;;;17.83;100.00;92845.44;5051196;28;20195;-77
2023/07/04 02:46:13;;;;;;;12.93;11.93;;;;;;;17.96;100.00;92867.47;5049360;28;20231;-77
2023/07/04 02:48:40;;;;;;;12.20;11.40;;;;;;;17.73;100.00;92822.00;5049521;28;20180;-77
2023/07/04 02:51:05;;;;;;;11.93;11.13;;;;;;;18.00;100.00;92865.72;5048984;28;20214;-77
2023/07/04 02:53:31;;;;;;;11.87;10.97;;;;;;;17.83;100.00;92849.94;5049769;28;20240;-77
2023/07/04 02:55:56;;;;;;;11.97;11.03;;;;;;;17.88;100.00;92857.69;5049151;28;20226;-77
2023/07/04 02:58:22;;;;;;;11.90;10.83;;;;;;;17.77;100.00;92861.75;5037087;28;20195;-77
2023/07/04 03:00:48;;;;;;;12.60;11.37;;;;;;;17.71;100.00;92847.19;5048808;28;20223;-77
2023/07/04 03:03:14;;;;;;;11.60;10.70;;;;;;;17.92;100.00;92863.88;5045327;28;20177;-77
2023/07/04 03:05:40;;;;;;;11.90;11.00;;;;;;;17.98;100.00;92860.75;5044545;28;20218;-77
2023/07/04 03:08:06;;;;;;;13.00;11.67;;;;;;;18.15;100.00;92859.91;5049659;28;20182;-77
2023/07/04 03:10:32;;;;;;;11.33;10.47;;;;;;;18.33;100.00;92869.31;5049133;28;20222;-77
2023/07/04 03:12:58;;;;;;;12.17;11.07;;;;;;;18.43;100.00;92871.59;5048859;28;20230;-77
2023/07/04 03:15:24;;;;;;;13.37;12.17;;;;;;;18.42;100.00;92868.19;5048287;28;20279;-77
2023/07/04 03:17:49;;;;;;;11.97;11.00;;;;;;;18.47;100.00;92862.72;5049834;28;20349;-77
2023/07/04 03:20:15;;;;;;;12.70;11.70;;;;;;;18.60;100.00;92868.88;5052384;28;20278;-77
2023/07/04 03:22:42;;;;;;;12.90;11.90;;;;;;;18.63;100.00;92861.06;5049753;28;20194;-77
2023/07/04 03:25:08;;;;;;;11.80;10.90;;;;;;;18.71;100.00;92852.28;5048874;28;20250;-77
2023/07/04 03:27:36;;;;;;;13.03;12.13;;;;;;;18.82;100.00;92865.91;5049632;28;20247;-77
2023/07/04 03:30:03;;;;;;;13.17;12.00;;;;;;;18.97;99.97;92868.00;5040084;28;20234;-77
2023/07/04 03:32:28;;;;;;;12.97;11.90;;;;;;;18.85;99.85;92844.09;5049080;28;20267;-77
2023/07/04 03:34:55;;;;;;;13.87;12.50;;;;;;;18.97;99.83;92874.03;5051793;28;20293;-78
2023/07/04 03:37:21;;;;;;;13.17;12.03;;;;;;;18.80;100.00;92852.25;5053697;28;20184;-77
2023/07/04 03:39:46;;;;;;;12.70;11.67;;;;;;;19.01;100.00;92869.66;5085299;28;20334;-77
2023/07/04 03:42:12;;;;;;;12.33;11.43;;;;;;;19.11;99.37;92858.66;5053661;28;20200;-77
2023/07/04 03:44:37;;;;;;;12.90;11.70;;;;;;;19.33;98.46;92878.75;5083827;28;20249;-77
2023/07/04 03:47:03;;;;;;;12.43;11.33;;;;;;;19.40;98.27;92880.88;5052090;28;20194;-77
2023/07/04 03:49:28;;;;;;;12.67;11.60;;;;;;;19.29;98.43;92872.56;5050391;28;20228;-77
2023/07/04 03:51:53;;;;;;;12.23;11.13;;;;;;;19.43;98.61;92885.53;5046071;28;20228;-77
2023/07/04 03:54:19;;;;;;;12.63;11.73;;;;;;;19.53;96.82;92880.63;5068784;28;20198;-77
2023/07/04 03:56:44;;;;;;;11.10;10.40;;;;;;;19.72;95.63;92894.13;5052917;28;20188;-77
2023/07/04 03:59:09;;;;;;;11.55;10.43;;;;;;;19.84;95.49;92886.22;5052264;28;20193;-77
2023/07/04 04:01:35;;;;;;;13.00;11.93;;;;;;;19.95;94.00;92875.97;5052114;28;20192;-77
2023/07/04 04:04:00;;;;;;;12.52;11.63;;;;;;;20.10;94.33;92886.69;5051730;28;20193;-77
2023/07/04 04:06:26;;;;;;;12.05;11.23;;;;;;;20.12;94.42;92891.69;5052650;28;20218;-77
2023/07/04 04:08:51;;;;;;;12.40;11.43;;;;;;;20.15;93.63;92878.56;5084848;28;20190;-77
2023/07/04 04:11:16;;;;;;;11.45;10.38;;;;;;;20.32;93.20;92888.97;5039905;28;20211;-77
2023/07/04 04:13:42;;;;;;;13.45;12.15;;;;;;;20.44;91.84;92873.03;5052425;28;20248;-77
2023/07/04 04:16:07;;;;;;;13.05;12.15;;;;;;;20.65;90.46;92888.84;5050520;28;20222;-77
2023/07/04 04:18:33;;;;;;;12.30;11.35;;;;;;;20.62;90.47;92890.28;5059409;28;20249;-77
2023/07/04 04:20:58;;;;;;;12.00;11.10;;;;;;;20.68;90.58;92899.53;5049860;28;20240;-77
2023/07/04 04:23:23;;;;;;;12.70;11.60;;;;;;;20.64;91.84;92903.97;5052673;28;20179;-77
2023/07/04 04:25:49;;;;;;;13.02;12.02;;;;;;;20.57;93.82;92903.78;5052295;28;20225;-77
2023/07/04 04:28:14;;;;;;;14.90;13.48;;;;;;;20.48;95.05;92899.69;5052991;28;20193;-78
2023/07/04 04:30:40;;;;;;;16.40;13.70;;;;;;;20.31;96.97;92905.97;5046963;28;20284;-77
2023/07/04 04:33:06;;;;;;;15.75;14.40;;;;;;;20.73;94.16;92909.19;5051447;28;20248;-77
2023/07/04 04:35:32;;;;;;;15.38;13.90;;;;;;;20.93;93.55;92916.25;5050539;28;20281;-77
2023/07/04 04:37:58;;;;;;;16.35;14.65;;;;;;;21.45;89.72;92900.28;5052098;28;20193;-77
2023/07/04 04:40:24;;;;;;;16.13;14.73;;;;;;;21.57;89.28;92918.88;5055421;28;20914;-69
2023/07/04 04:42:53;;;;;;;14.10;13.05;;;;;;;21.29;90.24;92923.38;5072127;28;20186;-72
2023/07/04 04:45:19;;;;;;;16.52;15.00;;;;;;;21.34;91.76;92923.16;5070111;28;20228;-67
2023/07/04 04:47:52;;;;;;;15.45;13.90;;;;;;;21.76;88.83;92922.47;5067795;28;20204;-68
2023/07/04 04:50:22;;;;;;;14.38;12.98;;;;;;;21.72;86.74;92916.25;5066962;28;20230;-68
2023/07/04 04:52:48;;;;;;;15.63;14.13;;;;;;;21.43;88.93;92934.41;5055145;28;20275;-67
2023/07/04 04:55:14;;;;;;;15.75;12.90;;;;;;;21.15;91.37;92918.44;5053037;28;20226;-68
2023/07/04 04:57:40;;;;;;;16.05;14.57;;;;;;;20.79;93.74;92923.00;5070242;28;20236;-67
2023/07/04 05:00:06;;;;;;;16.40;14.63;;;;;;;20.79;94.54;92933.59;5069549;28;20253;-69
2023/07/04 05:02:32;;;;;;;15.87;14.27;;;;;;;21.11;92.09;92938.00;5069697;28;20192;-66
2023/07/04 05:05:01;;;;;;;15.50;13.98;;;;;;;21.09;91.14;92930.38;5071007;28;20223;-65
2023/07/04 05:07:27;;;;;;;15.77;14.13;;;;;;;21.10;90.67;92937.25;5071062;28;20206;-69
2023/07/04 05:09:53;;;;;;;16.73;15.13;;;;;;;20.84;92.29;92925.44;5070709;28;20255;-67
2023/07/04 05:12:19;;;;;;;15.70;14.32;;;;;;;21.56;88.62;92927.94;5071134;28;20279;-65
2023/07/04 05:14:44;;;;;;;16.33;14.70;;;;;;;22.74;82.64;92950.81;5065735;28;20233;-68
2023/07/04 05:17:09;;;;;;;16.23;14.63;;;;;;;22.41;83.82;92942.41;5069395;28;20250;-68
2023/07/04 05:19:35;;;;;;;15.70;14.07;;;;;;;22.10;85.07;92924.50;5070207;28;20238;-68
2023/07/04 05:22:00;;;;;;;14.98;13.75;;;;;;;21.85;86.82;92940.94;5071345;28;20223;-68
2023/07/04 05:24:26;;;;;;;15.70;13.68;;;;;;;21.64;87.01;92940.31;5070194;28;20195;-69
2023/07/04 05:26:51;;;;;;;15.07;13.57;;;;;;;21.83;87.10;92935.19;5070584;28;20260;-68
2023/07/04 05:29:17;;;;;;;14.82;13.63;;;;;;;22.00;85.47;92937.53;5064881;28;20194;-68
2023/07/04 05:31:42;;;;;;;15.02;13.57;;;;;;;21.93;85.81;92934.69;5069628;28;20185;-67
2023/07/04 05:34:07;;;;;;;14.85;13.55;;;;;;;21.32;90.52;92926.16;5068307;28;20205;-69
2023/07/04 05:36:33;;;;;;;14.68;13.43;;;;;;;22.37;83.80;92935.44;5068631;28;20203;-66
2023/07/04 05:39:01;;;;;;;17.42;12.32;;;;;;;24.05;78.68;92947.19;5070002;28;20187;-67
2023/07/04 05:41:29;;;;;;;13.43;12.32;;;;;;;29.85;53.89;92949.31;5061748;28;20225;-66
2023/07/04 05:43:56;;;;;;;14.95;11.10;;;;;;;33.22;44.79;92970.50;5059266;28;20241;-67
2023/07/04 05:46:21;;;;;;;12.63;11.43;;;;;;;35.46;39.50;92963.34;5067425;28;20221;-67
2023/07/04 05:48:47;;;;;;;12.10;11.00;;;;;;;36.57;36.02;92973.63;5063896;28;20196;-67
2023/07/04 05:51:14;;;;;;;10.75;9.63;;;;;;;38.67;32.75;92976.13;5059769;28;20222;-67
2023/07/04 05:53:42;;;;;;;10.02;9.05;;;;;;;39.13;30.27;92991.56;5061528;28;20212;-67
2023/07/04 05:56:12;;;;;;;11.48;9.60;;;;;;;37.32;32.64;92986.56;5062113;28;20306;-67
2023/07/04 05:58:40;;;;;;;11.05;8.75;;;;;;;37.63;33.43;92982.03;5066278;28;20189;-67
2023/07/04 06:01:13;;;;;;;10.32;9.43;;;;;;;37.86;32.29;92981.69;5067021;28;20226;-67
2023/07/04 06:03:39;;;;;;;9.93;9.10;;;;;;;39.05;29.90;92979.38;5066232;28;20221;-69
2023/07/04 06:06:06;;;;;;;10.18;9.23;;;;;;;39.55;29.83;92979.72;5068553;28;20225;-67
2023/07/04 06:08:33;;;;;;;10.50;9.45;;;;;;;39.99;29.15;92968.59;5068176;28;20196;-67
2023/07/04 06:11:04;;;;;;;10.88;9.30;;;;;;;41.85;26.16;92981.97;5068631;28;20225;-66
2023/07/04 06:13:30;;;;;;;9.10;8.40;;;;;;;42.00;25.89;92986.31;5061363;28;20233;-68
2023/07/04 06:15:56;;;;;;;9.55;8.85;;;;;;;42.27;25.54;92985.34;5061484;28;20225;-67
2023/07/04 06:18:22;;;;;;;9.43;8.40;;;;;;;40.88;27.49;92978.72;5069138;28;20197;-68
2023/07/04 06:20:48;;;;;;;9.18;8.32;;;;;;;40.41;26.60;92983.22;5066137;28;20309;-68
2023/07/04 06:23:14;;;;;;;9.50;8.70;;;;;;;40.74;26.79;92962.94;5062454;28;20173;-68
2023/07/04 06:25:40;;;;;;;10.32;9.32;;;;;;;40.97;26.84;92975.22;5067361;28;20251;-68
2023/07/04 06:28:05;;;;;;;10.50;9.27;;;;;;;39.26;28.66;92965.66;5054483;28;20195;-68
2023/07/04 06:30:34;;;;;;;9.52;8.70;;;;;;;40.66;26.01;92966.44;5066873;28;20248;-68
2023/07/04 06:33:03;;;;;;;8.95;8.15;;;;;;;40.57;26.76;92961.72;5054139;28;20222;-68
2023/07/04 06:35:29;;;;;;;8.68;8.07;;;;;;;41.20;25.81;92966.31;5066354;28;20229;-67
2023/07/04 06:37:54;;;;;;;10.88;8.95;;;;;;;39.43;27.24;92968.91;5067384;28;20192;-68
2023/07/04 06:40:19;;;;;;;10.23;9.23;;;;;;;37.06;31.83;92961.28;5066963;28;20233;-68
2023/07/04 06:42:45;;;;;;;9.32;8.48;;;;;;;35.44;34.55;92954.09;5068791;28;20189;-68
2023/07/04 06:45:10;;;;;;;9.57;8.65;;;;;;;38.91;29.27;92960.78;5058120;28;20245;-68
2023/07/04 06:47:36;;;;;;;10.07;9.15;;;;;;;38.12;29.72;92962.09;5068767;28;20189;-69
2023/07/04 06:50:01;;;;;;;17.10;8.80;;;;;;;37.45;31.56;92958.09;5067791;28;20275;-68
2023/07/04 06:52:26;;;;;;;8.80;7.93;;;;;;;34.06;35.81;92955.53;5067706;28;20217;-68
2023/07/04 06:54:52;;;;;;;12.05;9.93;;;;;;;32.76;40.26;92951.47;5046512;28;20239;-68
2023/07/04 06:57:20;;;;;;;9.52;8.63;;;;;;;30.83;44.41;92936.16;5066820;28;20201;-68
2023/07/04 06:59:45;;;;;;;11.43;10.23;;;;;;;29.17;49.37;92937.88;5063469;28;20267;-68
2023/07/04 07:02:14;;;;;;;12.07;10.25;;;;;;;27.80;55.12;92920.69;5066537;28;20189;-68
2023/07/04 07:04:40;;;;;;;11.50;10.35;;;;;;;26.37;60.20;92918.50;5059889;28;20225;-67
2023/07/04 07:07:09;;;;;;;11.32;10.20;;;;;;;26.87;58.85;92923.16;5064056;28;20219;-67
2023/07/04 07:09:40;;;;;;;12.05;10.55;;;;;;;26.86;60.15;92926.22;5067882;28;20228;-67
2023/07/04 07:12:06;;;;;;;11.32;10.45;;;;;;;26.31;60.99;92919.97;5060453;28;20305;-67
2023/07/04 07:14:32;;;;;;;12.05;11.02;;;;;;;25.54;64.14;92924.44;5067515;28;20225;-67
2023/07/04 07:16:57;;;;;;;13.02;11.82;;;;;;;25.26;67.25;92916.78;5067822;28;20220;-67
2023/07/04 07:19:26;;;;;;;13.45;12.30;;;;;;;25.53;65.41;92920.97;5049172;28;20190;-67
2023/07/04 07:21:52;;;;;;;15.10;13.70;;;;;;;26.17;62.43;92922.50;5070528;28;20197;-67
2023/07/04 07:24:17;;;;;;;13.48;12.32;;;;;;;25.47;64.33;92921.66;5064799;28;20193;-67
2023/07/04 07:26:43;;;;;;;13.20;11.90;;;;;;;25.87;63.45;92924.47;5065516;28;20193;-67
2023/07/04 07:29:08;;;;;;;13.43;11.77;;;;;;;25.69;64.49;92924.25;5065441;28;20181;-68
2023/07/04 07:31:34;;;;;;;12.30;11.20;;;;;;;25.95;63.42;92923.38;5065179;28;20182;-68
2023/07/04 07:34:01;;;;;;;12.88;11.77;;;;;;;25.73;65.74;92913.59;5062817;28;20228;-81
2023/07/04 07:36:30;;;;;;;12.30;11.20;;;;;;;25.57;65.91;92924.47;5066697;28;20233;-78
2023/07/04 07:38:57;;;;;;;13.32;11.50;;;;;;;25.28;68.04;92931.31;5065104;28;20193;-78
2023/07/04 07:41:27;;;;;;;12.20;11.05;;;;;;;25.59;63.88;92908.81;5055933;28;20225;-78
2023/07/04 07:43:52;;;;;;;13.30;12.10;;;;;;;26.15;62.54;92936.25;5058512;28;20174;-77
2023/07/04 07:46:18;;;;;;;12.40;11.30;;;;;;;25.90;63.37;92927.16;5064390;28;20446;-78
2023/07/04 07:48:45;;;;;;;12.40;11.23;;;;;;;26.22;63.16;92940.91;5067199;28;20189;-77
2023/07/04 07:51:12;;;;;;;12.90;11.57;;;;;;;26.24;62.67;92942.09;5055760;28;20258;-77
2023/07/04 07:53:39;;;;;;;14.07;12.48;;;;;;;25.47;66.10;92941.16;5066421;28;20209;-70
2023/07/04 07:56:07;;;;;;;14.00;12.52;;;;;;;25.50;64.59;92905.66;5057449;28;20234;-75
2023/07/04 07:58:33;;;;;;;13.70;12.50;;;;;;;25.95;63.53;92923.38;5066659;28;20185;-75
2023/07/04 08:00:58;;;;;;;16.00;12.60;;;;;;;25.82;64.78;92928.19;5063261;28;20231;-75
2023/07/04 08:03:24;;;;;;;15.35;13.13;;;;;;;25.55;65.27;92925.97;5056001;28;20186;-74
2023/07/04 08:05:50;;;;;;;13.98;12.43;;;;;;;25.86;64.32;92926.34;5066302;28;20263;-75
2023/07/04 08:08:15;;;;;;;13.75;12.45;;;;;;;26.26;63.52;92942.50;5067528;28;20186;-74
2023/07/04 08:10:42;;;;;;;14.45;13.00;;;;;;;25.74;65.19;92904.41;5065531;28;20237;-75
2023/07/04 08:13:09;;;;;;;13.18;11.93;;;;;;;25.86;64.55;92937.06;5058538;28;20226;-75
2023/07/04 08:15:34;;;;;;;15.30;13.73;;;;;;;25.20;66.11;92928.91;5064670;28;20226;-74
2023/07/04 08:18:06;;;;;;;14.75;13.20;;;;;;;26.30;63.06;92937.97;5061700;28;20190;-74
2023/07/04 08:20:32;;;;;;;15.38;13.98;;;;;;;26.26;62.12;92915.72;5067948;28;20235;-82
2023/07/04 08:22:57;;;;;;;16.85;14.15;;;;;;;26.21;62.44;92928.69;5077923;28;20212;-74
2023/07/04 08:25:22;;;;;;;14.57;13.27;;;;;;;26.09;63.59;92904.81;5069089;28;20229;-75
2023/07/04 08:27:48;;;;;;;16.40;13.40;;;;;;;26.22;63.92;92935.56;5071441;28;20217;-74
2023/07/04 08:30:14;;;;;;;16.05;14.57;;;;;;;25.87;63.10;92911.84;5069333;28;20237;-74
2023/07/04 08:32:39;;;;;;;15.57;13.20;;;;;;;26.35;62.83;92929.56;5062725;28;20266;-72
2023/07/04 08:35:05;;;;;;;16.00;13.32;;;;;;;26.09;62.47;92932.38;5067200;28;20229;-78
2023/07/04 08:37:30;;;;;;;16.00;14.32;;;;;;;25.99;63.12;92925.00;5072114;28;20173;-72
2023/07/04 08:39:56;;;;;;;16.77;15.07;;;;;;;25.13;67.07;92910.09;5070539;28;20240;-71
2023/07/04 08:42:24;;;;;;;16.45;14.85;;;;;;;25.28;67.46;92927.88;5066788;28;20190;-69
2023/07/04 08:44:52;;;;;;;15.05;13.55;;;;;;;26.14;65.30;92912.53;5074695;28;20250;-65
2023/07/04 08:47:25;;;;;;;14.90;13.52;;;;;;;26.36;63.46;92917.75;5070655;28;20200;-66
2023/07/04 08:50:19;;;;;;;16.02;14.30;;;;;;;26.46;62.68;92919.72;5063558;28;20236;-65
2023/07/04 08:52:54;;;;;;;17.95;16.20;;;;;;;26.34;64.60;92922.69;5064900;28;20228;-66
2023/07/04 08:55:20;;;;;;;18.92;14.02;;;;;;;26.62;61.70;92917.59;5069157;28;20229;-65
2023/07/04 08:57:53;;;;;;;15.93;14.60;;;;;;;26.32;65.38;92914.25;5070154;28;20201;-66
2023/07/04 09:00:33;;;;;;;16.02;14.63;;;;;;;26.17;65.17;92906.44;5070795;28;20239;-68
2023/07/04 09:03:09;;;;;;;20.17;15.27;;;;;;;26.44;61.30;92910.53;5071513;28;20181;-68
2023/07/04 09:05:57;;;;;;;15.48;13.88;;;;;;;26.40;62.83;92915.06;5053284;28;20220;-65
2023/07/04 09:08:55;;;;;;;15.77;14.27;;;;;;;26.50;61.93;92915.19;5071307;28;20177;-65
2023/07/04 09:11:22;;;;;;;14.40;13.20;;;;;;;26.61;62.48;92905.34;5059025;28;20280;-69
2023/07/04 09:13:55;;;;;;;20.52;14.15;;;;;;;26.42;63.64;92913.59;5069877;28;20255;-66
2023/07/04 09:16:32;;;;;;;15.88;14.27;;;;;;;26.51;65.63;92903.34;5071318;28;20214;-66
2023/07/04 09:19:06;;;;;;;16.45;14.75;;;;;;;26.85;60.80;92903.25;5071383;28;20238;-69
2023/07/04 09:21:33;;;;;;;15.07;13.57;;;;;;;26.08;63.34;92914.00;5075433;28;20221;-67
2023/07/04 09:24:03;;;;;;;16.38;14.93;;;;;;;26.43;64.92;92908.97;5050052;28;20198;-65
2023/07/04 09:26:40;;;;;;;14.63;13.32;;;;;;;27.01;62.31;92906.41;5068416;28;20225;-69
2023/07/04 09:29:06;;;;;;;16.38;13.73;;;;;;;27.07;60.67;92911.06;5071681;28;20184;-68
2023/07/04 09:31:36;;;;;;;14.10;12.88;;;;;;;26.93;61.69;92912.88;5076253;28;20217;-71
2023/07/04 09:34:07;;;;;;;14.23;12.82;;;;;;;26.69;62.01;92904.28;5071471;28;20205;-70
2023/07/04 09:36:37;;;;;;;13.88;12.65;;;;;;;26.85;61.55;92901.31;5073358;28;20205;-70
2023/07/04 09:39:06;;;;;;;16.35;14.73;;;;;;;26.63;61.66;92900.41;5071067;28;20812;-69
2023/07/04 09:41:36;;;;;;;15.85;13.95;;;;;;;26.43;65.30;92907.09;5071234;28;20228;-70
2023/07/04 09:44:19;;;;;;;17.52;13.98;;;;;;;26.25;62.95;92906.16;5079172;28;20185;-67
2023/07/04 09:46:53;;;;;;;15.00;13.70;;;;;;;26.75;62.95;92894.00;5071680;28;20240;-68
2023/07/04 09:49:26;;;;;;;15.43;13.93;;;;;;;27.03;63.21;92898.78;5065374;28;20178;-68
2023/07/04 09:52:19;;;;;;;15.07;13.77;;;;;;;27.40;59.39;92902.09;5069960;28;20190;-68
2023/07/04 09:55:07;;;;;;;14.63;13.23;;;;;;;27.19;59.15;92885.88;5069963;28;20287;-68
2023/07/04 09:57:32;;;;;;;14.73;13.00;;;;;;;27.18;59.07;92895.03;5077649;28;20245;-72
2023/07/04 10:00:19;;;;;;;15.07;13.18;;;;;;;27.32;60.88;92892.47;5070881;28;20264;-67
2023/07/04 10:02:46;;;;;;;14.25;12.90;;;;;;;27.58;59.34;92892.22;5069658;28;20189;-72
2023/07/04 10:05:23;;;;;;;15.77;14.20;;;;;;;26.85;61.03;92861.13;5070642;28;20245;-73
2023/07/04 10:08:09;;;;;;;14.73;13.32;;;;;;;27.27;58.92;92892.84;5070675;28;20719;-73
2023/07/04 10:10:38;;;;;;;14.70;13.32;;;;;;;27.44;57.99;92898.28;5050790;28;20266;-69
2023/07/04 10:13:06;;;;;;;15.00;12.95;;;;;;;27.64;58.02;92886.09;5071885;28;20289;-67
2023/07/04 10:15:41;;;;;;;13.95;12.55;;;;;;;27.59;59.61;92888.41;5077140;28;20237;-71
2023/07/04 10:18:22;;;;;;;13.73;12.38;;;;;;;27.35;59.09;92889.81;5055649;28;20177;-68
2023/07/04 10:20:53;;;;;;;16.02;13.68;;;;;;;27.10;63.21;92883.50;5069109;28;20288;-67
2023/07/04 10:23:20;;;;;;;12.98;11.68;;;;;;;27.34;62.74;92882.13;5073720;28;20212;-67
2023/07/04 10:25:47;;;;;;;14.65;12.18;;;;;;;27.92;57.49;92878.19;5073310;28;20233;-67
2023/07/04 10:28:17;;;;;;;15.40;13.90;;;;;;;28.02;58.07;92887.41;5069354;28;20185;-67
2023/07/04 10:30:47;;;;;;;15.27;13.77;;;;;;;27.86;61.14;92878.94;5069226;28;20253;-67
2023/07/04 10:33:26;;;;;;;14.15;12.77;;;;;;;27.84;58.55;92873.16;5067592;28;20224;-68
2023/07/04 10:35:52;;;;;;;14.38;13.02;;;;;;;27.42;60.04;92881.03;5075282;28;20287;-67
2023/07/04 10:38:28;;;;;;;14.40;13.07;;;;;;;27.46;60.05;92879.91;5072196;28;20204;-68
2023/07/04 10:40:55;;;;;;;13.90;12.40;;;;;;;27.63;58.02;92881.13;5067646;28;20284;-70
2023/07/04 10:43:30;;;;;;;14.48;13.07;;;;;;;27.37;58.91;92876.03;5073419;28;20189;-70
2023/07/04 10:45:58;;;;;;;12.55;11.35;;;;;;;26.94;59.23;92874.22;5060025;28;20229;-71
2023/07/04 10:48:30;;;;;;;14.55;13.18;;;;;;;27.11;58.85;92870.88;5046363;28;20253;-70
2023/07/04 10:51:04;;;;;;;14.93;13.43;;;;;;;27.31;57.53;92866.81;5050138;28;20260;-69
2023/07/04 10:53:30;;;;;;;15.15;12.27;;;;;;;27.18;56.19;92868.22;5039560;28;20270;-69
2023/07/04 10:55:58;;;;;;;13.50;12.40;;;;;;;27.12;57.88;92864.38;5048989;28;21099;-70
2023/07/04 10:58:28;;;;;;;13.00;11.70;;;;;;;26.95;57.73;92860.44;5052378;28;20216;-70
2023/07/04 11:01:04;;;;;;;14.98;13.32;;;;;;;26.87;58.37;92863.44;5059854;28;20221;-70
2023/07/04 11:04:05;;;;;;;13.40;12.20;;;;;;;26.76;58.76;92862.63;5048679;28;20197;-70
2023/07/04 11:06:52;;;;;;;16.27;11.90;;;;;;;27.16;57.82;92865.91;5049834;28;20224;-70
2023/07/04 11:09:18;;;;;;;14.23;12.98;;;;;;;27.28;59.34;92840.75;5053240;28;20189;-69
2023/07/04 11:11:48;;;;;;;13.70;12.60;;;;;;;27.16;59.69;92849.84;5049625;28;20201;-69
2023/07/04 11:14:18;;;;;;;14.13;12.77;;;;;;;26.67;58.84;92839.59;5052123;28;20268;-70
2023/07/04 11:16:44;;;;;;;13.70;12.43;;;;;;;26.59;58.23;92848.69;5057965;28;20205;-69
2023/07/04 11:19:19;;;;;;;14.90;12.50;;;;;;;27.10;59.95;92839.88;5050109;28;20253;-70
2023/07/04 11:22:03;;;;;;;13.27;12.07;;;;;;;27.05;60.76;92848.25;5052626;28;20193;-69